createdAt,value
2022-12-05T00:00:19.905Z,4.44
2022-12-05T00:03:23.055Z,4.42
2022-12-05T00:06:26.836Z,4.43
2022-12-05T00:09:30.019Z,4.41
2022-12-05T00:12:32.744Z,4.44
2022-12-05T00:15:40.073Z,4.45
2022-12-05T00:18:42.913Z,4.44
2022-12-05T00:21:45.732Z,4.45
2022-12-05T00:24:48.160Z,4.44
2022-12-05T00:27:53.026Z,4.47
2022-12-05T00:30:55.566Z,4.51
2022-12-05T00:34:01.343Z,4.46
2022-12-05T00:37:03.835Z,4.46
2022-12-05T00:40:07.203Z,4.44
2022-12-05T00:43:09.638Z,4.45
2022-12-05T00:46:15.176Z,4.43
2022-12-05T00:49:17.757Z,4.44
2022-12-05T00:52:20.639Z,4.47
2022-12-05T00:55:23.093Z,4.49
2022-12-05T00:58:26.081Z,4.46
2022-12-05T01:01:37.341Z,4.42
2022-12-05T01:04:40.305Z,4.42
2022-12-05T01:07:42.811Z,4.41
2022-12-05T01:10:53.443Z,4.39
2022-12-05T01:13:56.398Z,4.39
2022-12-05T01:16:59.311Z,4.28
2022-12-05T01:20:01.816Z,4.26
2022-12-05T01:23:04.646Z,4.21
2022-12-05T01:26:12.782Z,4.22
2022-12-05T01:29:18.666Z,4.16
2022-12-05T01:32:21.341Z,4.10
2022-12-05T01:35:24.117Z,4.13
2022-12-05T01:38:26.846Z,4.11
2022-12-05T01:41:33.550Z,4.06
2022-12-05T01:44:35.908Z,4.12
2022-12-05T01:47:38.983Z,4.13
2022-12-05T01:50:41.530Z,4.05
2022-12-05T01:53:44.405Z,4.09
2022-12-05T01:57:00.202Z,4.03
2022-12-05T02:00:11.426Z,4.02
2022-12-05T02:03:19.385Z,4.03
2022-12-05T02:06:24.089Z,3.96
2022-12-05T02:09:26.549Z,4.02
2022-12-05T02:12:29.349Z,4.00
2022-12-05T02:15:51.129Z,3.96
2022-12-05T02:19:29.739Z,3.96
2022-12-05T02:22:34.895Z,3.92
2022-12-05T02:25:52.459Z,3.87
2022-12-05T02:29:25.777Z,3.84
2022-12-05T02:32:53.432Z,3.87
2022-12-05T02:36:11.182Z,3.92
2022-12-05T02:39:17.535Z,3.95
2022-12-05T02:42:31.017Z,3.90
2022-12-05T02:45:36.653Z,3.91
2022-12-05T02:48:39.471Z,3.95
2022-12-05T02:51:45.787Z,3.92
2022-12-05T02:54:49.721Z,3.91
2022-12-05T02:57:55.298Z,3.87
2022-12-05T03:00:58.586Z,3.87
2022-12-05T03:04:03.855Z,3.83
2022-12-05T03:07:12.357Z,3.79
2022-12-05T03:10:18.072Z,3.81
2022-12-05T03:13:28.864Z,3.80
2022-12-05T03:16:36.145Z,3.82
2022-12-05T03:19:55.220Z,3.77
2022-12-05T03:23:06.099Z,3.78
2022-12-05T03:26:15.034Z,3.77
2022-12-05T03:29:27.064Z,3.77
2022-12-05T03:32:58.500Z,3.77
2022-12-05T03:36:24.529Z,3.79
2022-12-05T03:39:32.733Z,3.84
2022-12-05T03:42:38.689Z,3.78
2022-12-05T03:45:55.569Z,3.84
2022-12-05T03:49:13.484Z,3.75
2022-12-05T03:52:27.489Z,3.83
2022-12-05T03:55:32.231Z,3.83
2022-12-05T03:58:43.432Z,3.80
2022-12-05T04:01:47.927Z,3.79
2022-12-05T04:04:58.358Z,3.79
2022-12-05T04:08:10.517Z,3.83
2022-12-05T04:11:20.160Z,3.83
2022-12-05T04:14:28.791Z,3.82
2022-12-05T04:17:38.110Z,3.81
2022-12-05T04:21:14.270Z,3.85
2022-12-05T04:24:47.907Z,3.86
2022-12-05T04:27:59.558Z,3.87
2022-12-05T04:31:16.698Z,3.85
2022-12-05T04:34:20.245Z,3.89
2022-12-05T04:37:24.346Z,3.89
2022-12-05T04:40:31.425Z,3.88
2022-12-05T04:43:37.432Z,3.87
2022-12-05T04:46:41.252Z,3.89
2022-12-05T04:49:48.047Z,3.84
2022-12-05T04:52:55.449Z,3.86
2022-12-05T04:55:59.863Z,3.87
2022-12-05T04:59:02.692Z,3.86
2022-12-05T05:02:08.460Z,3.91
2022-12-05T05:05:14.154Z,3.97
2022-12-05T05:08:23.542Z,4.01
2022-12-05T05:11:28.639Z,3.98
2022-12-05T05:14:31.508Z,3.96
2022-12-05T05:17:33.983Z,3.96
2022-12-05T05:20:36.770Z,3.94
2022-12-05T05:23:39.290Z,3.84
2022-12-05T05:26:44.054Z,3.82
2022-12-05T05:29:46.754Z,3.77
2022-12-05T05:32:50.215Z,3.76
2022-12-05T05:35:52.772Z,3.78
2022-12-05T05:38:57.877Z,3.86
2022-12-05T05:42:00.439Z,3.81
2022-12-05T05:45:03.414Z,3.73
2022-12-05T05:48:06.226Z,3.80
2022-12-05T05:51:11.851Z,3.86
2022-12-05T05:54:14.346Z,3.87
2022-12-05T05:57:20.342Z,3.82
2022-12-05T06:00:23.263Z,3.80
2022-12-05T06:03:26.062Z,3.78
2022-12-05T06:06:28.646Z,3.78
2022-12-05T06:09:31.448Z,3.81
2022-12-05T06:12:34.189Z,3.82
2022-12-05T06:15:37.371Z,3.74
2022-12-05T06:18:40.020Z,3.84
2022-12-05T06:21:42.952Z,3.82
2022-12-05T06:24:45.511Z,3.89
2022-12-05T06:27:48.268Z,3.85
2022-12-05T06:30:51.985Z,3.79
2022-12-05T06:33:54.801Z,3.75
2022-12-05T06:36:57.344Z,3.69
2022-12-05T06:40:00.781Z,3.88
2022-12-05T06:43:03.433Z,3.77
2022-12-05T06:46:07.743Z,3.88
2022-12-05T06:49:10.740Z,3.81
2022-12-05T06:52:13.560Z,3.80
2022-12-05T06:55:16.124Z,3.80
2022-12-05T06:58:19.030Z,3.82
2022-12-05T07:01:42.499Z,3.77
2022-12-05T07:04:45.722Z,3.57
2022-12-05T07:07:49.936Z,3.72
2022-12-05T07:10:53.281Z,3.64
2022-12-05T07:13:56.016Z,3.77
2022-12-05T07:16:59.115Z,3.81
2022-12-05T07:20:01.896Z,3.77
2022-12-05T07:23:04.949Z,3.87
2022-12-05T07:26:09.252Z,3.78
2022-12-05T07:29:12.644Z,3.82
2022-12-05T07:32:15.275Z,3.88
2022-12-05T07:35:18.304Z,3.79
2022-12-05T07:38:21.300Z,3.81
2022-12-05T07:41:29.343Z,3.81
2022-12-05T07:44:32.209Z,3.84
2022-12-05T07:47:35.184Z,3.90
2022-12-05T07:50:37.783Z,3.99
2022-12-05T07:53:44.579Z,3.84
2022-12-05T07:56:48.074Z,3.97
2022-12-05T07:59:51.139Z,3.95
2022-12-05T08:02:53.841Z,3.96
2022-12-05T08:06:01.963Z,3.95
2022-12-05T08:09:04.657Z,3.97
2022-12-05T08:12:07.480Z,3.98
2022-12-05T08:15:10.480Z,4.04
2022-12-05T08:18:13.361Z,3.82
2022-12-05T08:21:18.249Z,3.92
2022-12-05T08:24:21.140Z,4.01
2022-12-05T08:27:23.721Z,3.96
2022-12-05T08:30:31.394Z,4.02
2022-12-05T08:33:34.345Z,4.03
2022-12-05T08:36:37.090Z,3.90
2022-12-05T08:39:39.666Z,4.02
2022-12-05T08:42:42.455Z,4.04
2022-12-05T08:45:52.811Z,4.07
2022-12-05T08:48:56.179Z,4.11
2022-12-05T08:51:59.076Z,4.17
2022-12-05T08:55:01.903Z,4.15
2022-12-05T08:58:04.687Z,4.19
2022-12-05T09:01:08.756Z,4.16
2022-12-05T09:04:12.503Z,4.17
2022-12-05T09:07:15.485Z,4.19
2022-12-05T09:10:18.175Z,4.22
2022-12-05T09:13:21.499Z,4.26
2022-12-05T09:16:35.259Z,4.33
2022-12-05T09:19:42.014Z,4.41
2022-12-05T09:22:44.523Z,4.48
2022-12-05T09:25:56.417Z,4.44
2022-12-05T09:28:59.782Z,4.43
2022-12-05T09:32:03.047Z,4.50
2022-12-05T09:35:05.664Z,4.50
2022-12-05T09:38:08.428Z,4.54
2022-12-05T09:41:14.178Z,4.56
2022-12-05T09:44:43.408Z,4.56
2022-12-05T09:47:59.498Z,4.67
2022-12-05T09:51:03.896Z,4.67
2022-12-05T09:54:06.515Z,4.67
2022-12-05T09:57:10.524Z,4.74
2022-12-05T10:00:13.708Z,4.59
2022-12-05T10:03:30.605Z,4.53
2022-12-05T10:06:39.231Z,4.74
2022-12-05T10:09:47.870Z,4.79
2022-12-05T10:13:09.111Z,4.80
2022-12-05T10:16:29.645Z,4.83
2022-12-05T10:19:36.257Z,4.75
2022-12-05T10:22:46.463Z,4.78
2022-12-05T10:25:52.856Z,4.82
2022-12-05T10:29:01.789Z,4.80
2022-12-05T10:32:48.109Z,4.84
2022-12-05T10:35:54.378Z,4.80
2022-12-05T10:38:57.634Z,4.83
2022-12-05T10:42:01.220Z,4.78
2022-12-05T10:45:07.513Z,4.87
2022-12-05T10:48:12.853Z,4.83
2022-12-05T10:51:32.491Z,4.91
2022-12-05T10:55:02.924Z,4.70
2022-12-05T10:58:17.690Z,4.83
2022-12-05T11:01:20.901Z,4.81
2022-12-05T11:04:25.233Z,4.80
2022-12-05T11:07:36.423Z,4.80
2022-12-05T11:10:45.373Z,4.81
2022-12-05T11:13:59.011Z,4.86
2022-12-05T11:17:03.242Z,4.84
2022-12-05T11:20:33.197Z,4.88
2022-12-05T11:23:35.788Z,4.85
2022-12-05T11:26:38.664Z,4.85
2022-12-05T11:29:41.291Z,4.87
2022-12-05T11:32:44.060Z,4.94
2022-12-05T11:35:47.651Z,4.96
2022-12-05T11:38:51.390Z,4.97
2022-12-05T11:42:06.195Z,5.07
2022-12-05T11:45:29.409Z,5.14
2022-12-05T11:48:32.438Z,5.15
2022-12-05T11:51:55.929Z,5.20
2022-12-05T11:55:21.467Z,5.27
2022-12-05T11:58:40.384Z,5.29
2022-12-05T12:02:01.539Z,5.27
2022-12-05T12:05:45.497Z,5.34
2022-12-05T12:09:06.790Z,5.32
2022-12-05T12:12:27.367Z,5.32
2022-12-05T12:15:46.747Z,5.37
2022-12-05T12:19:04.803Z,5.35
2022-12-05T12:22:37.835Z,5.43
2022-12-05T12:26:10.465Z,5.39
2022-12-05T12:29:32.886Z,5.28
2022-12-05T12:32:57.614Z,5.48
2022-12-05T12:36:17.351Z,5.46
2022-12-05T12:39:26.079Z,5.47
2022-12-05T12:42:33.288Z,5.38
2022-12-05T12:45:50.435Z,5.41
2022-12-05T12:49:10.915Z,5.51
2022-12-05T12:52:16.328Z,5.53
2022-12-05T12:55:25.649Z,5.54
2022-12-05T12:58:48.170Z,5.54
2022-12-05T13:02:10.328Z,5.54
2022-12-05T13:05:35.456Z,5.53
2022-12-05T13:08:43.438Z,5.52
2022-12-05T13:11:47.401Z,5.59
2022-12-05T13:14:57.159Z,5.54
2022-12-05T13:18:00.586Z,5.29
2022-12-05T13:21:08.391Z,5.49
2022-12-05T13:24:12.426Z,5.50
2022-12-05T13:27:20.440Z,5.46
2022-12-05T13:30:28.893Z,5.56
2022-12-05T13:33:34.898Z,5.55
2022-12-05T13:36:59.997Z,5.51
2022-12-05T13:40:21.903Z,5.47
2022-12-05T13:43:27.682Z,5.49
2022-12-05T13:46:32.549Z,5.57
2022-12-05T13:49:48.494Z,5.57
2022-12-05T13:52:57.537Z,5.54
2022-12-05T13:56:07.753Z,5.57
2022-12-05T13:59:10.619Z,5.57
2022-12-05T14:02:41.728Z,5.56
2022-12-05T14:05:46.946Z,5.35
2022-12-05T14:08:53.921Z,5.53
2022-12-05T14:12:14.887Z,5.52
2022-12-05T14:15:38.879Z,5.51
2022-12-05T14:18:54.227Z,5.50
2022-12-05T14:22:00.067Z,5.49
2022-12-05T14:25:36.890Z,5.50
2022-12-05T14:28:48.536Z,5.45
2022-12-05T14:32:25.844Z,5.55
2022-12-05T14:35:31.432Z,5.56
2022-12-05T14:38:36.832Z,5.55
2022-12-05T14:41:39.808Z,5.60
2022-12-05T14:44:47.187Z,5.54
2022-12-05T14:47:55.576Z,5.65
2022-12-05T14:51:00.459Z,5.70
2022-12-05T14:54:07.315Z,5.62
2022-12-05T14:57:13.395Z,5.60
2022-12-05T15:00:22.601Z,5.60
2022-12-05T15:03:30.535Z,5.61
2022-12-05T15:06:55.130Z,5.49
2022-12-05T15:10:02.196Z,5.53
2022-12-05T15:13:09.438Z,5.51
2022-12-05T15:16:18.372Z,5.47
2022-12-05T15:19:30.051Z,5.47
2022-12-05T15:22:35.617Z,5.44
2022-12-05T15:25:38.183Z,5.45
2022-12-05T15:28:41.141Z,5.40
2022-12-05T15:31:48.958Z,5.40
2022-12-05T15:35:01.647Z,5.41
2022-12-05T15:38:27.079Z,5.39
2022-12-05T15:41:34.010Z,5.38
2022-12-05T15:44:38.394Z,5.32
2022-12-05T15:47:49.347Z,5.33
2022-12-05T15:50:53.272Z,5.29
2022-12-05T15:54:10.638Z,5.24
2022-12-05T15:57:20.037Z,5.22
2022-12-05T16:00:30.175Z,5.19
2022-12-05T16:03:42.298Z,5.16
2022-12-05T16:06:48.802Z,5.16
2022-12-05T16:09:58.551Z,5.15
2022-12-05T16:13:15.881Z,5.14
2022-12-05T16:16:26.226Z,5.11
2022-12-05T16:19:29.378Z,5.12
2022-12-05T16:22:33.932Z,5.13
2022-12-05T16:25:37.165Z,5.15
2022-12-05T16:28:40.299Z,5.12
2022-12-05T16:31:43.527Z,5.04
2022-12-05T16:34:46.602Z,5.11
2022-12-05T16:37:49.323Z,5.06
2022-12-05T16:41:04.988Z,5.07
2022-12-05T16:44:57.909Z,4.99
2022-12-05T16:48:01.051Z,5.06
2022-12-05T16:51:26.087Z,5.05
2022-12-05T16:54:30.027Z,5.03
2022-12-05T16:57:32.472Z,5.03
2022-12-05T17:00:36.553Z,5.03
2022-12-05T17:03:39.065Z,5.05
2022-12-05T17:06:41.789Z,5.03
2022-12-05T17:09:44.399Z,5.04
2022-12-05T17:12:47.851Z,5.04
2022-12-05T17:15:50.513Z,5.05
2022-12-05T17:18:53.533Z,5.03
2022-12-05T17:21:56.236Z,5.04
2022-12-05T17:25:00.913Z,5.04
2022-12-05T17:28:03.957Z,5.01
2022-12-05T17:31:07.315Z,5.03
2022-12-05T17:34:16.016Z,5.00
2022-12-05T17:37:18.763Z,5.06
2022-12-05T17:40:21.620Z,5.04
2022-12-05T17:43:25.419Z,5.06
2022-12-05T17:46:28.511Z,5.06
2022-12-05T17:49:31.321Z,5.06
2022-12-05T17:52:34.033Z,5.05
2022-12-05T17:55:37.044Z,5.04
2022-12-05T17:58:41.747Z,5.05
2022-12-05T18:01:44.621Z,5.03
2022-12-05T18:04:47.413Z,4.99
2022-12-05T18:07:50.302Z,4.97
2022-12-05T18:10:53.393Z,4.97
2022-12-05T18:13:56.599Z,4.97
2022-12-05T18:16:59.459Z,4.94
2022-12-05T18:20:02.146Z,4.94
2022-12-05T18:23:06.267Z,4.93
2022-12-05T18:26:10.294Z,4.90
2022-12-05T18:29:13.208Z,4.91
2022-12-05T18:32:16.011Z,4.89
2022-12-05T18:35:19.068Z,4.89
2022-12-05T18:38:21.729Z,4.84
2022-12-05T18:41:27.351Z,4.87
2022-12-05T18:44:30.386Z,4.87
2022-12-05T18:47:33.743Z,4.85
2022-12-05T18:50:36.709Z,4.86
2022-12-05T18:53:40.083Z,4.84
2022-12-05T18:56:45.874Z,4.83
2022-12-05T18:59:51.989Z,4.79
2022-12-05T19:02:54.644Z,4.81
2022-12-05T19:05:57.387Z,4.75
2022-12-05T19:09:02.576Z,4.77
2022-12-05T19:12:05.813Z,4.76
2022-12-05T19:15:08.912Z,4.75
2022-12-05T19:18:12.330Z,4.74
2022-12-05T19:21:17.810Z,4.73
2022-12-05T19:24:20.980Z,4.73
2022-12-05T19:27:23.756Z,4.72
2022-12-05T19:30:31.038Z,4.72
2022-12-05T19:33:35.230Z,4.73
2022-12-05T19:36:41.091Z,4.73
2022-12-05T19:39:44.657Z,4.74
2022-12-05T19:42:47.751Z,4.75
2022-12-05T19:45:52.161Z,4.74
2022-12-05T19:49:00.896Z,4.75
2022-12-05T19:52:05.298Z,4.75
2022-12-05T19:55:08.871Z,4.75
2022-12-05T19:58:11.654Z,4.72
2022-12-05T20:01:24.695Z,4.73
2022-12-05T20:04:28.313Z,4.74
2022-12-05T20:07:31.195Z,4.73
2022-12-05T20:10:36.211Z,4.71
2022-12-05T20:13:48.268Z,4.70
2022-12-05T20:16:52.266Z,4.70
2022-12-05T20:19:58.363Z,4.71
2022-12-05T20:23:03.196Z,4.71
2022-12-05T20:26:08.158Z,4.69
2022-12-05T20:29:11.274Z,4.68
2022-12-05T20:32:13.765Z,4.69
2022-12-05T20:35:20.977Z,4.67
2022-12-05T20:38:26.736Z,4.67
2022-12-05T20:41:29.972Z,4.68
2022-12-05T20:44:36.038Z,4.65
2022-12-05T20:47:39.059Z,4.65
2022-12-05T20:50:41.996Z,4.65
2022-12-05T20:53:45.433Z,4.65
2022-12-05T20:56:49.171Z,4.64
2022-12-05T20:59:52.383Z,4.62
2022-12-05T21:02:56.797Z,4.62
2022-12-05T21:06:00.311Z,4.61
2022-12-05T21:09:05.346Z,4.61
2022-12-05T21:12:08.373Z,4.60
2022-12-05T21:18:15.254Z,4.62
2022-12-05T21:21:23.391Z,4.62
2022-12-05T21:24:26.353Z,4.54
2022-12-05T21:27:30.457Z,4.63
2022-12-05T21:30:35.028Z,4.61
2022-12-05T21:33:38.221Z,4.59
2022-12-05T21:36:41.018Z,4.59
2022-12-05T21:39:43.607Z,4.59
2022-12-05T21:42:47.067Z,4.60
2022-12-05T21:48:59.608Z,4.63
2022-12-05T21:52:03.352Z,4.62
2022-12-05T21:55:10.446Z,4.62
2022-12-05T21:58:13.012Z,4.65
2022-12-05T22:01:19.431Z,4.64
2022-12-05T22:04:22.412Z,4.62
2022-12-05T22:07:30.345Z,4.66
2022-12-05T22:10:49.833Z,4.68
2022-12-05T22:13:52.829Z,4.68
2022-12-05T22:16:56.433Z,4.70
2022-12-05T22:19:59.734Z,4.70
2022-12-05T22:23:02.905Z,4.70
2022-12-05T22:26:08.762Z,4.71
2022-12-05T22:29:11.582Z,4.71
2022-12-05T22:32:14.241Z,4.69
2022-12-05T22:35:17.474Z,4.71
2022-12-05T22:38:20.241Z,4.74
2022-12-05T22:41:26.430Z,4.73
2022-12-05T22:44:28.974Z,4.71
2022-12-05T22:47:31.743Z,4.73
2022-12-05T22:50:34.874Z,4.71
2022-12-05T22:53:38.626Z,4.74
2022-12-05T22:56:41.181Z,4.74
2022-12-05T22:59:44.905Z,4.76
2022-12-05T23:02:47.501Z,4.77
2022-12-05T23:05:51.457Z,4.76
2022-12-05T23:08:54.867Z,4.75
2022-12-05T23:12:01.562Z,4.76
2022-12-05T23:15:20.311Z,4.70
2022-12-05T23:18:23.243Z,4.66
2022-12-05T23:21:40.075Z,4.69
2022-12-05T23:24:43.047Z,4.70
2022-12-05T23:27:45.526Z,4.69
2022-12-05T23:30:48.349Z,4.72
2022-12-05T23:33:51.784Z,4.72
2022-12-05T23:36:54.636Z,4.73
2022-12-05T23:39:57.318Z,4.72
2022-12-05T23:43:00.363Z,4.73
2022-12-05T23:46:04.255Z,4.69
2022-12-05T23:49:07.855Z,4.74
2022-12-05T23:52:10.780Z,4.78
2022-12-05T23:55:13.762Z,4.80
2022-12-05T23:58:16.182Z,4.75
